Time;durP1;ratioP1;P1;durP2;ratioP2;P2;SDS_P1;SDS_P2;PMS_P1;PMS_P2;Temp;Humidity;BMP_temperature;BMP_pressure;BME280_temperature;BME280_humidity;BME280_pressure;Samples;Min_cycle;Max_cycle;Signal;HPM_P1;HPM_P2
2024/03/24 00:02:21;;;;;;;22.42;18.50;;;3.30;99.90;;;;;;4920468;28;20090;-71
2024/03/24 00:04:47;;;;;;;20.13;17.48;;;3.30;99.90;;;;;;4936873;28;20128;-73
2024/03/24 00:07:13;;;;;;;20.08;18.13;;;3.30;99.90;;;;;;4931821;28;20137;-72
2024/03/24 00:09:39;;;;;;;20.77;18.70;;;3.30;99.90;;;;;;4935099;28;20427;-71
2024/03/24 00:12:06;;;;;;;20.58;18.00;;;3.40;99.90;;;;;;4919663;28;20035;-72
2024/03/24 00:14:32;;;;;;;22.83;19.27;;;3.40;99.90;;;;;;4922553;28;20047;-71
2024/03/24 00:16:59;;;;;;;19.00;17.05;;;3.40;99.90;;;;;;4934348;28;20514;-71
2024/03/24 00:19:25;;;;;;;21.17;18.85;;;3.50;99.90;;;;;;4966076;28;20042;-71
2024/03/24 00:21:51;;;;;;;24.65;18.23;;;3.50;99.90;;;;;;4952904;28;20058;-72
2024/03/24 00:24:17;;;;;;;18.25;16.48;;;3.60;99.90;;;;;;4936165;28;20113;-72
2024/03/24 00:26:44;;;;;;;19.60;17.73;;;3.60;99.90;;;;;;4945706;28;20042;-71
2024/03/24 00:29:10;;;;;;;19.23;17.35;;;3.70;99.90;;;;;;4918024;28;20038;-72
2024/03/24 00:31:36;;;;;;;20.67;18.52;;;3.70;99.90;;;;;;4936894;28;20038;-71
2024/03/24 00:34:02;;;;;;;21.10;18.90;;;3.70;99.90;;;;;;4932969;28;20045;-71
2024/03/24 00:36:28;;;;;;;21.40;16.42;;;3.80;99.90;;;;;;4935252;28;20105;-72
2024/03/24 00:38:54;;;;;;;18.25;16.45;;;3.80;99.90;;;;;;4946899;28;20054;-71
2024/03/24 00:41:21;;;;;;;19.38;17.58;;;3.90;99.90;;;;;;4941693;28;20043;-70
2024/03/24 00:43:47;;;;;;;23.15;17.73;;;3.90;99.90;;;;;;4952281;28;20756;-71
2024/03/24 00:46:13;;;;;;;17.67;16.02;;;3.90;99.90;;;;;;4942908;28;20050;-71
2024/03/24 00:48:39;;;;;;;19.15;17.05;;;3.90;99.90;;;;;;4966670;28;20535;-71
2024/03/24 00:51:05;;;;;;;20.75;17.88;;;3.90;99.90;;;;;;4967310;28;20041;-72
2024/03/24 00:53:32;;;;;;;16.85;15.10;;;3.90;99.90;;;;;;4936185;28;20043;-72
2024/03/24 00:55:58;;;;;;;19.17;17.20;;;3.80;99.90;;;;;;4935576;28;21416;-72
2024/03/24 00:58:24;;;;;;;19.27;17.42;;;3.80;99.90;;;;;;4956892;28;20042;-72
2024/03/24 01:00:50;;;;;;;22.33;15.35;;;3.90;99.90;;;;;;4938280;28;20535;-73
2024/03/24 01:03:17;;;;;;;18.05;16.35;;;3.90;99.90;;;;;;4951398;28;20096;-71
2024/03/24 01:05:42;;;;;;;18.48;16.38;;;3.90;99.90;;;;;;4968511;28;20069;-72
2024/03/24 01:08:08;;;;;;;18.73;17.27;;;3.90;99.90;;;;;;4954456;28;20077;-71
2024/03/24 01:10:38;;;;;;;19.48;17.77;;;3.90;99.90;;;;;;4950968;28;20034;-73
2024/03/24 01:13:05;;;;;;;17.67;15.95;;;3.90;99.90;;;;;;4937531;28;20049;-72
2024/03/24 01:15:31;;;;;;;17.88;16.08;;;3.90;99.90;;;;;;4955513;28;20042;-72
2024/03/24 01:17:59;;;;;;;19.00;16.05;;;3.90;99.90;;;;;;4952110;28;20051;-72
2024/03/24 01:20:25;;;;;;;18.02;16.38;;;3.90;99.90;;;;;;4941537;28;20043;-72
2024/03/24 01:22:52;;;;;;;17.98;16.33;;;3.90;99.90;;;;;;4970850;28;20081;-73
2024/03/24 01:25:18;;;;;;;17.70;16.23;;;3.90;99.90;;;;;;4962159;28;20027;-72
2024/03/24 01:27:44;;;;;;;17.65;16.15;;;3.90;99.90;;;;;;4955374;28;20045;-72
2024/03/24 01:30:11;;;;;;;19.70;15.82;;;3.90;99.90;;;;;;4950925;28;20038;-73
2024/03/24 01:32:37;;;;;;;18.85;17.10;;;3.90;99.90;;;;;;4972895;28;20038;-72
2024/03/24 01:35:04;;;;;;;18.63;16.73;;;3.90;99.90;;;;;;4951180;28;20039;-71
2024/03/24 01:37:30;;;;;;;18.00;16.08;;;3.90;99.90;;;;;;4985133;28;20088;-72
2024/03/24 01:39:56;;;;;;;18.45;16.73;;;3.90;99.90;;;;;;4951949;28;20069;-72
2024/03/24 01:42:22;;;;;;;18.05;16.30;;;3.90;99.90;;;;;;4948586;28;20054;-72
2024/03/24 01:44:49;;;;;;;23.15;16.60;;;3.90;99.90;;;;;;4932993;28;20054;-72
2024/03/24 01:47:15;;;;;;;18.70;17.05;;;3.90;99.90;;;;;;4953276;28;20100;-73
2024/03/24 01:49:41;;;;;;;19.63;17.45;;;3.90;99.90;;;;;;4973478;28;20630;-71
2024/03/24 01:52:08;;;;;;;18.77;16.85;;;4.00;99.90;;;;;;4929334;28;20057;-72
2024/03/24 01:54:34;;;;;;;18.35;16.42;;;3.90;99.90;;;;;;4956508;28;20069;-72
2024/03/24 01:57:03;;;;;;;18.33;16.65;;;3.90;99.90;;;;;;4955043;28;20058;-72
2024/03/24 01:59:29;;;;;;;18.73;17.02;;;4.00;99.90;;;;;;4958517;28;20613;-73
2024/03/24 02:01:56;;;;;;;18.88;16.83;;;3.90;99.90;;;;;;4956524;28;20053;-71
2024/03/24 02:04:22;;;;;;;18.88;16.67;;;3.90;99.90;;;;;;4960341;28;20047;-70
2024/03/24 02:06:49;;;;;;;18.65;17.15;;;3.90;99.90;;;;;;4971744;28;20605;-72
2024/03/24 02:09:14;;;;;;;18.60;16.98;;;3.90;99.90;;;;;;4967019;28;20049;-72
2024/03/24 02:11:41;;;;;;;20.08;17.92;;;4.00;99.90;;;;;;4938227;28;20043;-71
2024/03/24 02:14:08;;;;;;;22.33;17.35;;;3.90;99.90;;;;;;4954413;28;20090;-71
2024/03/24 02:16:34;;;;;;;19.27;16.55;;;3.90;99.90;;;;;;4944897;28;20713;-72
2024/03/24 02:19:03;;;;;;;18.67;16.85;;;3.90;99.90;;;;;;4959975;28;20105;-72
2024/03/24 02:21:30;;;;;;;21.08;18.92;;;4.00;99.90;;;;;;4971549;28;20101;-71
2024/03/24 02:23:57;;;;;;;18.77;16.80;;;4.00;99.90;;;;;;4956350;28;20439;-70
2024/03/24 02:26:23;;;;;;;22.05;18.25;;;4.00;99.90;;;;;;4972663;28;20068;-70
2024/03/24 02:28:49;;;;;;;22.48;18.33;;;4.00;99.90;;;;;;4957759;28;20465;-71
2024/03/24 02:31:16;;;;;;;19.77;17.67;;;3.90;99.90;;;;;;4970062;28;20042;-72
2024/03/24 02:33:42;;;;;;;20.83;18.73;;;3.90;99.90;;;;;;4956909;28;20034;-71
2024/03/24 02:36:08;;;;;;;17.73;16.25;;;3.90;99.90;;;;;;4953187;28;20618;-71
2024/03/24 02:38:34;;;;;;;19.95;17.85;;;3.90;99.90;;;;;;4939144;28;20081;-70
2024/03/24 02:41:01;;;;;;;21.48;18.50;;;3.90;99.90;;;;;;4952465;28;20039;-72
2024/03/24 02:43:27;;;;;;;20.38;17.60;;;3.90;99.90;;;;;;4971813;28;20117;-72
2024/03/24 02:45:57;;;;;;;20.25;18.33;;;3.90;99.90;;;;;;4939071;28;20042;-71
2024/03/24 02:48:23;;;;;;;20.35;18.35;;;3.90;99.90;;;;;;4956378;28;20928;-70
2024/03/24 02:50:50;;;;;;;27.80;18.65;;;3.90;99.90;;;;;;4958678;28;20041;-72
2024/03/24 02:53:17;;;;;;;22.48;18.67;;;4.00;99.90;;;;;;4936749;28;20043;-71
2024/03/24 02:55:47;;;;;;;21.48;18.30;;;4.00;99.90;;;;;;4953885;28;20042;-71
2024/03/24 02:58:14;;;;;;;19.70;17.38;;;4.00;99.90;;;;;;4953103;28;20058;-72
2024/03/24 03:00:41;;;;;;;22.40;18.48;;;4.00;99.90;;;;;;4944570;28;20038;-72
2024/03/24 03:03:09;;;;;;;21.50;18.98;;;4.00;99.90;;;;;;4949749;28;20093;-71
2024/03/24 03:05:35;;;;;;;20.33;18.33;;;4.00;99.90;;;;;;4973187;28;20084;-73
2024/03/24 03:08:04;;;;;;;22.15;19.95;;;4.00;99.90;;;;;;4969531;28;20046;-71
2024/03/24 03:10:36;;;;;;;22.42;19.40;;;4.00;99.90;;;;;;4941972;28;20046;-71
2024/03/24 03:13:04;;;;;;;22.95;20.15;;;4.00;99.90;;;;;;4958080;28;20055;-72
2024/03/24 03:15:31;;;;;;;23.25;20.25;;;4.00;99.90;;;;;;4953721;28;20049;-72
2024/03/24 03:17:57;;;;;;;22.90;20.40;;;4.00;99.90;;;;;;4955714;28;20052;-72
2024/03/24 03:20:24;;;;;;;23.42;19.85;;;4.00;99.90;;;;;;4954654;28;20049;-72
2024/03/24 03:22:50;;;;;;;23.40;19.65;;;4.00;99.90;;;;;;4969898;28;21083;-71
2024/03/24 03:25:16;;;;;;;24.80;19.73;;;4.10;99.90;;;;;;4962152;28;20057;-71
2024/03/24 03:27:44;;;;;;;25.45;20.17;;;4.00;99.90;;;;;;4971901;28;20128;-71
2024/03/24 03:30:11;;;;;;;22.10;19.70;;;3.90;99.90;;;;;;4954004;28;20056;-72
2024/03/24 03:32:37;;;;;;;21.35;19.15;;;3.80;99.90;;;;;;4957797;28;20057;-72
2024/03/24 03:35:03;;;;;;;24.25;20.17;;;3.80;99.90;;;;;;4949777;28;20053;-71
2024/03/24 03:37:30;;;;;;;23.05;20.73;;;3.80;99.90;;;;;;4952027;28;20054;-70
2024/03/24 03:39:56;;;;;;;22.98;20.10;;;3.80;99.90;;;;;;4953170;28;20054;-69
2024/03/24 03:42:22;;;;;;;21.23;19.27;;;3.80;99.90;;;;;;4936893;28;20046;-73
2024/03/24 03:44:49;;;;;;;21.30;19.05;;;3.70;99.90;;;;;;4955439;28;20116;-70
2024/03/24 03:47:17;;;;;;;21.75;19.75;;;3.80;99.90;;;;;;4960654;28;20035;-72
2024/03/24 03:49:50;;;;;;;26.92;20.90;;;3.80;99.90;;;;;;4956481;28;20051;-71
2024/03/24 03:52:17;;;;;;;21.73;19.50;;;3.80;99.90;;;;;;4951122;28;20042;-70
2024/03/24 03:54:45;;;;;;;22.73;20.45;;;3.90;99.90;;;;;;4949586;28;20050;-70
2024/03/24 03:57:11;;;;;;;22.15;19.67;;;3.90;99.90;;;;;;4933743;28;20038;-71
2024/03/24 03:59:37;;;;;;;23.13;20.77;;;3.90;99.90;;;;;;4952439;28;20705;-71
2024/03/24 04:02:03;;;;;;;22.50;20.20;;;3.90;99.90;;;;;;4932798;28;20045;-69
2024/03/24 04:04:29;;;;;;;23.30;20.90;;;3.90;99.90;;;;;;4962397;28;20046;-70
2024/03/24 04:06:58;;;;;;;22.65;20.38;;;3.90;99.90;;;;;;4973826;28;20125;-71
2024/03/24 04:09:23;;;;;;;21.95;19.65;;;3.90;99.90;;;;;;4964349;28;20054;-71
2024/03/24 04:11:50;;;;;;;21.40;19.48;;;3.90;99.90;;;;;;4949571;28;20133;-71
2024/03/24 04:14:16;;;;;;;20.92;18.83;;;4.00;99.90;;;;;;4972322;28;20511;-71
2024/03/24 04:16:42;;;;;;;21.27;18.98;;;4.00;99.90;;;;;;4960745;28;20304;-72
2024/03/24 04:19:08;;;;;;;22.48;20.15;;;3.90;99.90;;;;;;4950539;28;20039;-70
2024/03/24 04:21:37;;;;;;;22.38;20.00;;;3.90;99.90;;;;;;4953069;28;20058;-70
2024/03/24 04:24:04;;;;;;;21.42;18.83;;;3.90;99.90;;;;;;4971321;28;20046;-68
2024/03/24 04:26:30;;;;;;;22.70;19.92;;;3.90;99.90;;;;;;4934243;28;20130;-71
2024/03/24 04:28:56;;;;;;;21.85;19.55;;;3.90;99.90;;;;;;4937067;28;20042;-72
2024/03/24 04:31:23;;;;;;;20.50;18.35;;;3.80;99.90;;;;;;4963482;28;20054;-73
2024/03/24 04:33:50;;;;;;;23.92;17.27;;;3.80;99.90;;;;;;4972498;28;20053;-74
2024/03/24 04:36:16;;;;;;;20.67;17.33;;;3.70;99.90;;;;;;4949542;28;20062;-72
2024/03/24 04:38:42;;;;;;;21.67;14.75;;;3.60;99.90;;;;;;4968645;28;20106;-74
2024/03/24 04:41:09;;;;;;;18.60;14.65;;;3.50;99.90;;;;;;4944899;28;20116;-71
2024/03/24 04:43:35;;;;;;;23.10;15.95;;;3.40;99.90;;;;;;4953066;28;20061;-72
2024/03/24 04:46:02;;;;;;;22.27;15.65;;;3.40;99.90;;;;;;4936431;28;20038;-73
2024/03/24 04:48:28;;;;;;;24.25;15.68;;;3.40;99.90;;;;;;4951092;28;20136;-72
2024/03/24 04:50:56;;;;;;;23.83;13.85;;;3.30;99.90;;;;;;4951963;28;20042;-72
2024/03/24 04:53:24;;;;;;;23.08;15.10;;;3.30;99.90;;;;;;4939478;28;20673;-72
2024/03/24 04:55:51;;;;;;;29.17;17.55;;;3.20;99.90;;;;;;4951555;28;20046;-72
2024/03/24 04:58:17;;;;;;;27.05;14.48;;;3.20;99.90;;;;;;4953218;28;20126;-73
2024/03/24 05:00:45;;;;;;;31.35;16.58;;;3.20;99.90;;;;;;4953739;28;20046;-74
2024/03/24 05:03:11;;;;;;;23.48;14.45;;;3.20;99.90;;;;;;4934828;28;20069;-73
2024/03/24 05:05:38;;;;;;;28.92;17.25;;;3.20;99.90;;;;;;4951495;28;20050;-75
2024/03/24 05:08:05;;;;;;;32.33;16.90;;;3.10;99.90;;;;;;4954246;28;20034;-74
2024/03/24 05:10:32;;;;;;;32.70;16.98;;;3.10;99.90;;;;;;4931479;28;20656;-74
2024/03/24 05:12:59;;;;;;;31.02;18.58;;;3.10;99.90;;;;;;4968989;28;20050;-71
2024/03/24 05:15:24;;;;;;;26.73;14.88;;;3.20;99.90;;;;;;4935536;28;20104;-72
2024/03/24 05:17:52;;;;;;;25.85;15.30;;;3.20;99.90;;;;;;4942659;28;20049;-73
2024/03/24 05:20:18;;;;;;;27.27;15.20;;;3.20;99.90;;;;;;4936010;28;20054;-71
2024/03/24 05:22:44;;;;;;;25.48;14.95;;;3.20;99.90;;;;;;4952952;28;20093;-73
2024/03/24 05:25:11;;;;;;;26.17;15.63;;;3.30;99.90;;;;;;4935743;28;20042;-72
2024/03/24 05:27:37;;;;;;;25.48;13.63;;;3.30;99.90;;;;;;4952655;28;20611;-75
2024/03/24 05:30:03;;;;;;;27.92;14.95;;;3.40;99.90;;;;;;4956005;28;20042;-74
2024/03/24 05:32:30;;;;;;;22.83;13.73;;;3.40;99.90;;;;;;4966163;28;21146;-73
2024/03/24 05:34:56;;;;;;;22.80;14.75;;;3.50;99.90;;;;;;4966470;28;20039;-73
2024/03/24 05:37:22;;;;;;;22.15;14.23;;;3.50;99.90;;;;;;4933230;28;20045;-73
2024/03/24 05:39:48;;;;;;;20.35;15.18;;;3.60;99.90;;;;;;4939418;28;20062;-71
2024/03/24 05:42:15;;;;;;;25.05;15.13;;;3.60;99.90;;;;;;4952724;28;20049;-73
2024/03/24 05:44:41;;;;;;;18.23;12.38;;;3.60;99.90;;;;;;4952263;28;20061;-72
2024/03/24 05:47:07;;;;;;;16.02;10.90;;;3.60;99.90;;;;;;4950610;28;20515;-72
2024/03/24 05:49:33;;;;;;;16.77;11.90;;;3.70;99.90;;;;;;4917917;28;20051;-72
2024/03/24 05:52:00;;;;;;;17.13;12.32;;;3.70;99.90;;;;;;4954316;28;20050;-71
2024/03/24 05:54:27;;;;;;;15.40;11.20;;;3.70;99.90;;;;;;4951106;28;20038;-70
2024/03/24 05:56:53;;;;;;;18.60;12.27;;;3.80;99.90;;;;;;4953756;28;20046;-72
2024/03/24 05:59:19;;;;;;;18.65;11.60;;;3.80;99.90;;;;;;4951185;28;20153;-71
2024/03/24 06:01:47;;;;;;;15.48;10.73;;;3.80;99.90;;;;;;4952119;28;20050;-71
2024/03/24 06:04:13;;;;;;;19.80;13.27;;;3.80;99.90;;;;;;4936631;28;20070;-69
2024/03/24 06:06:40;;;;;;;17.88;11.57;;;3.80;99.90;;;;;;4950508;28;20045;-72
2024/03/24 06:09:08;;;;;;;17.25;11.52;;;3.70;99.90;;;;;;4954239;28;20076;-74
2024/03/24 06:11:34;;;;;;;15.55;9.48;;;3.70;99.90;;;;;;4966719;28;22521;-73
2024/03/24 06:14:01;;;;;;;19.33;12.85;;;3.70;99.90;;;;;;4966233;28;20050;-73
2024/03/24 06:16:27;;;;;;;16.48;9.90;;;3.60;99.90;;;;;;4947859;28;20034;-73
2024/03/24 06:18:55;;;;;;;15.35;11.07;;;3.60;99.90;;;;;;4956176;28;20058;-74
2024/03/24 06:21:21;;;;;;;13.95;9.75;;;3.50;99.90;;;;;;4953608;28;20093;-74
2024/03/24 06:23:51;;;;;;;8.75;6.72;;;3.30;99.90;;;;;;4973077;28;20054;-72
2024/03/24 06:26:17;;;;;;;14.27;8.63;;;3.20;99.90;;;;;;4975692;28;20046;-73
2024/03/24 06:28:43;;;;;;;12.48;7.93;;;3.20;99.90;;;;;;4946715;28;20066;-72
2024/03/24 06:31:10;;;;;;;10.00;6.60;;;3.20;99.90;;;;;;4932072;28;20043;-74
2024/03/24 06:33:36;;;;;;;13.15;8.98;;;3.20;99.90;;;;;;4931640;28;20923;-73
2024/03/24 06:36:02;;;;;;;14.20;7.55;;;3.20;99.90;;;;;;4930106;28;20039;-73
2024/03/24 06:38:28;;;;;;;14.48;9.13;;;3.20;99.90;;;;;;4942493;28;20130;-71
2024/03/24 06:40:55;;;;;;;11.88;8.30;;;3.20;99.90;;;;;;4950688;28;20039;-73
2024/03/24 06:43:30;;;;;;;9.77;6.57;;;3.20;99.90;;;;;;4949777;28;20054;-73
2024/03/24 06:45:56;;;;;;;11.85;7.75;;;3.30;99.90;;;;;;4932359;28;20094;-73
2024/03/24 06:48:22;;;;;;;12.00;7.18;;;3.30;99.90;;;;;;4949110;28;20047;-73
2024/03/24 06:50:49;;;;;;;11.35;7.65;;;3.40;99.90;;;;;;4931070;28;20049;-73
2024/03/24 06:53:17;;;;;;;10.57;8.30;;;3.50;99.90;;;;;;4931934;28;20054;-71
2024/03/24 06:55:47;;;;;;;11.95;7.60;;;3.50;99.90;;;;;;4948743;28;20035;-72
2024/03/24 06:58:13;;;;;;;10.90;8.52;;;3.60;99.90;;;;;;4932857;28;20149;-72
2024/03/24 07:00:39;;;;;;;12.50;8.20;;;3.70;99.90;;;;;;4955582;28;21077;-72
2024/03/24 07:03:05;;;;;;;10.48;8.52;;;3.70;99.90;;;;;;4926552;28;20055;-73
2024/03/24 07:05:31;;;;;;;12.82;7.97;;;3.80;99.90;;;;;;4931117;28;20472;-72
2024/03/24 07:07:58;;;;;;;11.00;8.18;;;3.80;99.90;;;;;;4937958;28;20070;-72
2024/03/24 07:10:24;;;;;;;17.15;10.38;;;3.80;99.90;;;;;;4926779;28;20051;-72
2024/03/24 07:12:50;;;;;;;11.85;10.45;;;3.80;99.90;;;;;;4940471;28;20046;-74
2024/03/24 07:15:16;;;;;;;12.43;8.90;;;3.80;99.90;;;;;;4953946;28;20571;-74
2024/03/24 07:17:42;;;;;;;17.30;10.00;;;3.70;99.90;;;;;;4934434;28;20055;-74
2024/03/24 07:20:09;;;;;;;20.55;11.20;;;3.70;99.90;;;;;;4950171;28;20106;-73
2024/03/24 07:22:35;;;;;;;11.98;8.60;;;3.80;99.90;;;;;;4934055;28;20055;-74
2024/03/24 07:25:02;;;;;;;10.57;8.38;;;3.70;99.90;;;;;;4940834;28;20047;-75
2024/03/24 07:27:31;;;;;;;13.25;9.32;;;3.70;99.90;;;;;;4954045;28;20294;-72
2024/03/24 07:29:57;;;;;;;15.73;9.85;;;3.70;99.90;;;;;;4934526;28;20054;-72
2024/03/24 07:32:23;;;;;;;15.90;10.25;;;3.80;99.90;;;;;;4932898;28;20095;-72
2024/03/24 07:34:49;;;;;;;12.98;9.27;;;3.80;99.90;;;;;;4941353;28;21091;-73
2024/03/24 07:37:15;;;;;;;15.13;9.13;;;3.70;99.90;;;;;;4920308;28;20065;-71
2024/03/24 07:39:42;;;;;;;10.43;7.57;;;3.80;99.90;;;;;;4958888;28;20062;-71
2024/03/24 07:42:09;;;;;;;17.05;9.32;;;3.80;99.90;;;;;;4943688;28;20054;-73
2024/03/24 07:44:36;;;;;;;14.05;7.97;;;3.70;99.90;;;;;;4938386;28;20051;-73
2024/03/24 07:47:05;;;;;;;18.25;11.20;;;3.70;99.90;;;;;;4953048;28;20042;-71
2024/03/24 07:49:35;;;;;;;23.92;12.27;;;3.70;99.90;;;;;;4950246;28;20051;-73
2024/03/24 07:52:01;;;;;;;20.67;12.02;;;3.80;99.90;;;;;;4957604;28;20049;-73
2024/03/24 07:54:27;;;;;;;14.60;9.45;;;3.70;99.90;;;;;;4932379;28;20051;-74
2024/03/24 07:56:54;;;;;;;16.15;8.82;;;3.70;99.90;;;;;;4938050;28;20067;-73
2024/03/24 07:59:20;;;;;;;12.82;8.82;;;3.70;99.90;;;;;;4951791;28;20054;-72
2024/03/24 08:01:46;;;;;;;15.02;8.90;;;3.80;99.90;;;;;;4952036;28;21137;-73
2024/03/24 08:04:14;;;;;;;14.25;8.68;;;3.80;99.90;;;;;;4938924;28;20197;-73
2024/03/24 08:06:42;;;;;;;16.23;8.93;;;3.80;99.90;;;;;;4917366;28;20057;-73
2024/03/24 08:09:08;;;;;;;13.23;7.57;;;3.90;99.90;;;;;;4926299;28;20901;-72
2024/03/24 08:11:34;;;;;;;21.45;10.57;;;4.00;99.90;;;;;;4947053;28;20035;-73
2024/03/24 08:14:01;;;;;;;14.93;9.10;;;4.00;99.90;;;;;;4930735;28;20134;-73
2024/03/24 08:16:28;;;;;;;15.50;8.95;;;4.10;99.90;;;;;;4954783;28;20038;-70
2024/03/24 08:18:54;;;;;;;13.63;8.60;;;4.00;99.90;;;;;;4951488;28;20056;-73
2024/03/24 08:21:20;;;;;;;16.23;10.20;;;4.00;99.90;;;;;;4937349;28;20153;-73
2024/03/24 08:23:46;;;;;;;15.57;9.85;;;4.00;99.90;;;;;;4958908;28;20051;-72
2024/03/24 08:26:12;;;;;;;12.02;7.32;;;4.00;99.90;;;;;;4942735;28;20055;-72
2024/03/24 08:28:38;;;;;;;15.00;9.50;;;4.00;99.90;;;;;;4937531;28;20087;-71
2024/03/24 08:31:04;;;;;;;14.10;9.00;;;4.00;99.90;;;;;;4933010;28;20035;-71
2024/03/24 08:33:30;;;;;;;15.73;10.38;;;4.10;99.90;;;;;;4951046;28;20043;-71
2024/03/24 08:35:57;;;;;;;14.90;8.85;;;4.20;99.90;;;;;;4956261;28;20053;-73
2024/03/24 08:38:23;;;;;;;14.88;8.32;;;4.20;99.90;;;;;;4960464;28;20103;-73
2024/03/24 08:40:49;;;;;;;17.55;9.80;;;4.20;99.90;;;;;;4965301;28;20784;-72
2024/03/24 08:43:15;;;;;;;16.83;10.00;;;4.20;99.90;;;;;;4955633;28;20054;-73
2024/03/24 08:45:42;;;;;;;19.85;10.95;;;4.20;99.90;;;;;;4948845;28;20047;-73
2024/03/24 08:48:08;;;;;;;18.83;10.30;;;4.30;99.90;;;;;;4959180;28;20053;-72
2024/03/24 08:50:34;;;;;;;21.10;12.13;;;4.30;99.90;;;;;;4936628;28;20628;-72
2024/03/24 08:53:01;;;;;;;22.95;13.13;;;4.40;99.90;;;;;;4979386;28;20048;-71
2024/03/24 08:55:27;;;;;;;25.92;13.85;;;4.40;99.90;;;;;;4936272;28;20658;-72
2024/03/24 08:57:53;;;;;;;26.75;14.77;;;4.40;99.90;;;;;;4950825;28;20060;-72
2024/03/24 09:00:19;;;;;;;26.45;14.90;;;4.50;99.90;;;;;;4958504;28;20512;-71
2024/03/24 09:02:45;;;;;;;20.75;12.07;;;4.40;99.90;;;;;;4943824;28;20835;-72
2024/03/24 09:05:11;;;;;;;23.27;12.77;;;4.40;99.90;;;;;;4952082;28;20042;-71
2024/03/24 09:07:38;;;;;;;23.25;14.70;;;4.50;99.90;;;;;;4950726;28;20035;-71
2024/03/24 09:10:04;;;;;;;25.38;12.40;;;4.50;99.90;;;;;;4956375;28;20651;-71
2024/03/24 09:12:30;;;;;;;29.80;13.60;;;4.60;99.90;;;;;;4948176;28;20062;-70
2024/03/24 09:14:57;;;;;;;21.10;13.98;;;4.60;99.90;;;;;;4949714;28;20440;-72
2024/03/24 09:17:23;;;;;;;25.92;15.00;;;4.70;99.90;;;;;;4941020;28;20038;-72
2024/03/24 09:19:49;;;;;;;25.30;16.00;;;4.70;99.90;;;;;;4963107;28;20027;-71
2024/03/24 09:22:16;;;;;;;25.77;15.43;;;4.90;99.90;;;;;;4970241;28;20069;-71
2024/03/24 09:24:42;;;;;;;24.38;14.88;;;5.00;99.90;;;;;;4954532;28;20543;-70
2024/03/24 09:27:09;;;;;;;24.83;16.48;;;5.00;99.90;;;;;;4955698;28;20054;-72
2024/03/24 09:29:35;;;;;;;27.75;16.98;;;5.10;99.90;;;;;;4949021;28;20071;-69
2024/03/24 09:32:02;;;;;;;24.73;12.95;;;5.20;99.90;;;;;;4946727;28;20588;-72
2024/03/24 09:34:28;;;;;;;25.60;14.73;;;5.20;99.90;;;;;;4993823;28;20649;-70
2024/03/24 09:36:54;;;;;;;24.27;15.70;;;5.20;99.90;;;;;;4953416;28;20720;-71
2024/03/24 09:39:20;;;;;;;22.27;14.73;;;5.20;99.90;;;;;;4943613;28;20058;-71
2024/03/24 09:41:47;;;;;;;22.17;15.80;;;5.10;99.90;;;;;;4932977;28;21273;-71
2024/03/24 09:44:15;;;;;;;29.25;17.42;;;5.20;99.90;;;;;;4970623;28;20039;-69
2024/03/24 09:46:45;;;;;;;31.33;20.25;;;5.20;99.90;;;;;;4983200;28;20057;-72
2024/03/24 09:49:12;;;;;;;23.00;16.20;;;5.20;99.90;;;;;;4956266;28;20042;-71
2024/03/24 09:51:39;;;;;;;23.60;16.80;;;5.20;99.90;;;;;;4951051;28;20046;-70
2024/03/24 09:54:13;;;;;;;26.88;16.60;;;5.10;99.90;;;;;;4950890;28;20058;-72
2024/03/24 09:56:41;;;;;;;24.65;15.05;;;5.10;99.90;;;;;;4968035;28;20062;-71
2024/03/24 09:59:07;;;;;;;19.55;13.52;;;5.20;99.90;;;;;;4944582;28;20535;-70
2024/03/24 10:01:38;;;;;;;22.98;13.50;;;5.20;99.90;;;;;;4937077;28;20069;-72
2024/03/24 10:04:06;;;;;;;18.38;13.05;;;5.00;99.90;;;;;;4955430;28;20054;-72
2024/03/24 10:06:33;;;;;;;23.17;14.35;;;5.20;99.90;;;;;;4944042;28;20636;-71
2024/03/24 10:09:01;;;;;;;23.92;15.80;;;5.10;99.90;;;;;;4938480;28;20596;-71
2024/03/24 10:11:32;;;;;;;24.10;17.58;;;5.40;99.90;;;;;;4968691;28;20164;-72
2024/03/24 10:14:01;;;;;;;27.70;17.05;;;5.50;99.90;;;;;;4969078;28;20042;-71
2024/03/24 10:16:28;;;;;;;21.13;15.68;;;5.40;99.90;;;;;;4952980;28;20050;-70
2024/03/24 10:18:54;;;;;;;16.55;13.90;;;5.60;99.90;;;;;;4938642;28;20050;-72
2024/03/24 10:21:20;;;;;;;24.30;19.10;;;5.70;99.90;;;;;;4980690;28;20050;-69
2024/03/24 10:23:47;;;;;;;19.38;17.10;;;5.50;99.90;;;;;;4948641;28;20046;-71
2024/03/24 10:26:21;;;;;;;18.77;16.38;;;5.60;99.90;;;;;;4956645;28;20040;-70
2024/03/24 10:28:49;;;;;;;18.80;16.80;;;5.70;99.90;;;;;;4934654;28;20054;-71
2024/03/24 10:31:15;;;;;;;15.88;14.27;;;5.70;99.90;;;;;;4956501;28;20034;-71
2024/03/24 10:33:42;;;;;;;19.00;16.13;;;5.70;99.90;;;;;;4961760;28;20543;-71
2024/03/24 10:36:09;;;;;;;19.55;16.33;;;5.50;99.90;;;;;;4958065;28;20463;-71
2024/03/24 10:38:37;;;;;;;20.15;15.70;;;5.50;99.90;;;;;;4956423;28;20825;-71
2024/03/24 10:41:05;;;;;;;17.42;15.05;;;5.60;99.90;;;;;;4968548;28;20396;-71
2024/03/24 10:43:31;;;;;;;16.70;14.35;;;5.50;99.90;;;;;;4954547;28;20065;-70
2024/03/24 10:45:58;;;;;;;15.95;14.05;;;5.50;99.90;;;;;;4941974;28;20803;-71
2024/03/24 10:48:32;;;;;;;16.80;15.00;;;5.30;99.90;;;;;;4960519;28;20093;-70
2024/03/24 10:51:07;;;;;;;16.27;14.70;;;5.30;99.90;;;;;;4968475;28;20113;-70
2024/03/24 10:53:33;;;;;;;17.75;15.85;;;5.30;99.90;;;;;;4953355;28;21283;-69
2024/03/24 10:56:01;;;;;;;23.42;16.92;;;5.20;99.90;;;;;;4957297;28;20054;-71
2024/03/24 10:58:28;;;;;;;22.77;18.05;;;5.30;99.90;;;;;;4959648;28;20066;-69
2024/03/24 11:00:55;;;;;;;24.08;20.35;;;5.20;99.90;;;;;;4956388;28;20053;-71
2024/03/24 11:03:22;;;;;;;29.75;18.73;;;5.30;99.90;;;;;;4956696;28;20058;-69
2024/03/24 11:05:51;;;;;;;28.25;21.20;;;5.40;99.90;;;;;;4951015;28;20061;-70
2024/03/24 11:08:21;;;;;;;29.83;23.55;;;5.60;99.90;;;;;;4972416;28;20078;-72
2024/03/24 11:10:49;;;;;;;28.80;23.60;;;5.60;99.90;;;;;;4969860;28;20093;-67
2024/03/24 11:13:18;;;;;;;25.55;22.92;;;5.70;99.90;;;;;;4945376;28;20511;-69
2024/03/24 11:15:49;;;;;;;30.63;24.80;;;5.80;99.90;;;;;;4968531;28;20692;-70
2024/03/24 11:18:28;;;;;;;30.73;25.52;;;5.90;99.90;;;;;;4957429;28;20053;-71
2024/03/24 11:20:56;;;;;;;27.55;24.67;;;6.10;99.90;;;;;;4940145;28;21035;-71
2024/03/24 11:23:23;;;;;;;30.60;27.40;;;6.20;99.90;;;;;;4959501;28;20058;-70
2024/03/24 11:26:01;;;;;;;32.25;29.02;;;6.30;99.90;;;;;;4963522;28;20050;-70
2024/03/24 11:28:48;;;;;;;28.75;26.02;;;6.40;99.90;;;;;;4972513;28;20046;-70
2024/03/24 11:31:20;;;;;;;31.10;27.98;;;6.50;99.90;;;;;;4959248;28;20388;-69
2024/03/24 11:34:04;;;;;;;31.88;28.67;;;6.50;99.90;;;;;;4939186;28;20088;-70
2024/03/24 11:36:34;;;;;;;29.42;26.88;;;6.50;99.90;;;;;;4953256;28;20062;-70
2024/03/24 11:39:02;;;;;;;31.80;28.83;;;6.40;99.90;;;;;;4957120;28;20046;-70
2024/03/24 11:41:28;;;;;;;30.23;27.17;;;6.40;99.90;;;;;;4974806;28;20035;-70
2024/03/24 11:44:02;;;;;;;30.58;27.55;;;6.50;99.90;;;;;;4952556;28;20050;-70
2024/03/24 11:46:32;;;;;;;32.60;29.83;;;6.60;99.90;;;;;;4943660;28;20043;-69
2024/03/24 11:49:01;;;;;;;30.30;27.10;;;6.80;99.90;;;;;;4970505;28;20063;-70
2024/03/24 11:51:30;;;;;;;31.75;28.95;;;7.10;99.90;;;;;;4971393;28;20252;-70
2024/03/24 11:53:57;;;;;;;35.33;32.42;;;7.30;99.90;;;;;;4983636;28;21158;-70
2024/03/24 11:56:24;;;;;;;32.83;30.08;;;7.40;99.90;;;;;;4949892;28;20039;-70
2024/03/24 11:58:53;;;;;;;36.30;32.95;;;7.40;99.90;;;;;;4951255;28;20180;-69
2024/03/24 12:01:24;;;;;;;32.90;29.75;;;7.30;99.90;;;;;;4972691;28;20137;-70
2024/03/24 12:03:51;;;;;;;30.98;27.90;;;7.00;99.90;;;;;;4952218;28;20065;-68
2024/03/24 12:06:19;;;;;;;24.13;21.73;;;6.90;99.90;;;;;;4941425;28;20345;-70
2024/03/24 12:08:47;;;;;;;21.80;19.38;;;6.30;99.90;;;;;;4949274;28;20031;-71
2024/03/24 12:11:16;;;;;;;15.00;13.55;;;5.80;99.90;;;;;;4974032;28;20046;-72
2024/03/24 12:13:43;;;;;;;19.92;14.63;;;5.20;99.90;;;;;;4953935;28;20050;-73
2024/03/24 12:16:15;;;;;;;25.70;13.55;;;4.90;99.90;;;;;;4955946;28;20508;-75
2024/03/24 12:18:43;;;;;;;9.40;7.80;;;4.60;99.90;;;;;;4944349;28;20042;-75
2024/03/24 12:21:09;;;;;;;12.20;8.50;;;4.30;99.90;;;;;;4962817;28;20181;-74
2024/03/24 12:23:36;;;;;;;15.40;9.10;;;4.20;99.90;;;;;;4980203;28;20065;-73
2024/03/24 12:26:04;;;;;;;14.73;8.45;;;4.30;99.90;;;;;;4937114;28;20515;-72
2024/03/24 12:28:30;;;;;;;26.05;10.02;;;4.50;99.90;;;;;;4941219;28;20495;-72
2024/03/24 12:30:58;;;;;;;16.23;10.13;;;4.60;99.90;;;;;;4965295;28;20042;-72
2024/03/24 12:33:26;;;;;;;24.60;11.60;;;4.60;99.90;;;;;;4954582;28;20664;-71
2024/03/24 12:35:54;;;;;;;15.38;8.45;;;4.70;99.90;;;;;;4952520;28;20041;-71
2024/03/24 12:38:20;;;;;;;16.13;8.20;;;4.70;99.90;;;;;;4952359;28;20042;-71